createdAt,value
2018-02-13T00:02:21.160Z,98108.86
2018-02-13T00:04:48.834Z,98103.48
2018-02-13T00:07:16.494Z,98107.09
2018-02-13T00:09:44.194Z,98104.60
2018-02-13T00:12:11.857Z,98112.34
2018-02-13T00:14:39.880Z,98115.72
2018-02-13T00:17:07.547Z,98110.82
2018-02-13T00:19:35.231Z,98112.00
2018-02-13T00:22:02.924Z,98111.88
2018-02-13T00:24:30.594Z,98104.11
2018-02-13T00:26:58.513Z,98113.33
2018-02-13T00:29:26.174Z,98111.48
2018-02-13T00:31:53.851Z,98111.16
2018-02-13T00:34:21.552Z,98114.80
2018-02-13T00:36:49.216Z,98115.62
2018-02-13T00:39:16.908Z,98118.28
2018-02-13T00:41:44.573Z,98114.19
2018-02-13T00:44:12.235Z,98118.78
2018-02-13T00:46:39.943Z,98114.44
2018-02-13T00:49:07.641Z,98112.83
2018-02-13T00:51:35.386Z,98111.89
2018-02-13T00:54:03.055Z,98118.98
2018-02-13T00:56:30.726Z,98111.21
2018-02-13T00:58:58.420Z,98112.75
2018-02-13T01:01:26.103Z,98117.05
2018-02-13T01:03:54.043Z,98116.88
2018-02-13T01:06:21.712Z,98117.57
2018-02-13T01:08:49.381Z,98120.88
2018-02-13T01:11:18.054Z,98121.80
2018-02-13T01:13:45.724Z,98118.50
2018-02-13T01:16:13.587Z,98116.41
2018-02-13T01:18:41.271Z,98119.30
2018-02-13T01:21:09.021Z,98116.66
2018-02-13T01:23:36.717Z,98117.41
2018-02-13T01:26:04.381Z,98115.23
2018-02-13T01:28:32.417Z,98119.91
2018-02-13T01:31:00.098Z,98111.59
2018-02-13T01:33:27.768Z,98106.20
2018-02-13T01:35:55.504Z,98109.22
2018-02-13T01:38:23.172Z,98108.98
2018-02-13T01:40:51.023Z,98105.64
2018-02-13T01:43:18.684Z,98113.16
2018-02-13T01:45:46.341Z,98110.03
2018-02-13T01:48:14.033Z,98107.94
2018-02-13T01:50:41.698Z,98108.60
2018-02-13T01:53:09.634Z,98111.58
2018-02-13T01:55:37.294Z,98113.68
2018-02-13T01:58:04.952Z,98111.23
2018-02-13T02:00:32.655Z,98112.18
2018-02-13T02:03:00.319Z,98108.52
2018-02-13T02:05:28.011Z,98106.84
2018-02-13T02:07:55.679Z,98109.56
2018-02-13T02:10:23.360Z,98109.80
2018-02-13T02:12:51.062Z,98111.81
2018-02-13T02:15:18.737Z,98106.41
2018-02-13T02:17:46.448Z,98112.80
2018-02-13T02:20:14.119Z,98114.28
2018-02-13T02:22:41.788Z,98112.95
2018-02-13T02:25:09.480Z,98108.25
2018-02-13T02:27:37.155Z,98106.09
2018-02-13T02:30:05.102Z,98100.80
2018-02-13T02:32:32.892Z,98108.98
2018-02-13T02:35:00.562Z,98103.48
2018-02-13T02:37:28.246Z,98107.08
2018-02-13T02:39:55.923Z,98106.20
2018-02-13T02:42:23.812Z,98106.31
2018-02-13T02:44:51.492Z,98104.28
2018-02-13T02:47:19.152Z,98099.67
2018-02-13T02:49:46.847Z,98098.59
2018-02-13T02:52:14.518Z,98095.41
2018-02-13T02:54:42.229Z,98095.52
2018-02-13T02:57:09.931Z,98093.00
2018-02-13T02:59:37.609Z,98087.86
2018-02-13T03:02:05.299Z,98091.44
2018-02-13T03:04:32.972Z,98092.54
2018-02-13T03:07:00.939Z,98089.22
2018-02-13T03:09:28.637Z,98090.38
2018-02-13T03:11:56.299Z,98094.17
2018-02-13T03:14:24.038Z,98091.74
2018-02-13T03:16:51.703Z,98093.28
2018-02-13T03:19:19.769Z,98090.20
2018-02-13T03:21:47.441Z,98090.25
2018-02-13T03:24:15.121Z,98088.19
2018-02-13T03:26:42.808Z,98094.25
2018-02-13T03:29:10.471Z,98092.27
2018-02-13T03:31:38.379Z,98094.08
2018-02-13T03:34:06.061Z,98090.50
2018-02-13T03:36:33.733Z,98086.47
2018-02-13T03:39:01.428Z,98089.81
2018-02-13T03:41:29.097Z,98088.70
2018-02-13T03:43:56.803Z,98088.27
2018-02-13T03:46:24.478Z,98085.22
2018-02-13T03:48:52.143Z,98079.84
2018-02-13T03:51:19.833Z,98078.99
2018-02-13T03:53:47.503Z,98086.95
2018-02-13T03:56:16.651Z,98081.25
2018-02-13T03:58:44.344Z,98082.70
2018-02-13T04:01:12.009Z,98084.51
2018-02-13T04:03:39.694Z,98081.19
2018-02-13T04:06:07.360Z,98088.78
2018-02-13T04:08:35.265Z,98083.20
2018-02-13T04:11:02.928Z,98084.60
2018-02-13T04:13:30.600Z,98087.42
2018-02-13T04:15:58.285Z,98086.02
2018-02-13T04:18:25.959Z,98085.48
2018-02-13T04:20:53.880Z,98088.09
2018-02-13T04:23:21.548Z,98091.07
2018-02-13T04:25:49.239Z,98082.40
2018-02-13T04:28:16.948Z,98079.98
2018-02-13T04:30:44.631Z,98080.30
2018-02-13T04:33:12.500Z,98084.55
2018-02-13T04:35:40.164Z,98083.20
2018-02-13T04:38:07.822Z,98084.38
2018-02-13T04:40:35.511Z,98083.95
2018-02-13T04:43:03.190Z,98084.15
2018-02-13T04:45:31.115Z,98086.28
2018-02-13T04:47:58.775Z,98083.84
2018-02-13T04:50:26.441Z,98088.73
2018-02-13T04:52:54.207Z,98083.84
2018-02-13T04:55:21.875Z,98085.59
2018-02-13T04:57:49.852Z,98084.03
2018-02-13T05:00:17.520Z,98076.41
2018-02-13T05:02:45.194Z,98073.78
2018-02-13T05:05:13.953Z,98074.27
2018-02-13T05:07:41.620Z,98065.66
2018-02-13T05:10:09.319Z,98068.57
2018-02-13T05:12:37.205Z,98069.69
2018-02-13T05:15:04.883Z,98077.01
2018-02-13T05:17:32.673Z,98074.27
2018-02-13T05:20:00.351Z,98077.72
2018-02-13T05:22:28.067Z,98070.92
2018-02-13T05:24:55.732Z,98071.70
2018-02-13T05:27:23.408Z,98072.01
2018-02-13T05:29:51.101Z,98076.89
2018-02-13T05:32:18.764Z,98079.86
2018-02-13T05:34:46.726Z,98078.71
2018-02-13T05:37:15.073Z,98078.66
2018-02-13T05:39:43.847Z,98074.99
2018-02-13T05:42:11.539Z,98077.12
2018-02-13T05:44:39.357Z,98077.96
2018-02-13T05:47:07.208Z,98081.07
2018-02-13T05:49:34.927Z,98084.12
2018-02-13T05:52:02.613Z,98083.67
2018-02-13T05:54:30.294Z,98079.33
2018-02-13T05:56:57.972Z,98083.62
2018-02-13T05:59:26.208Z,98082.25
2018-02-13T06:01:53.901Z,98083.23
2018-02-13T06:04:21.564Z,98075.95
2018-02-13T06:06:49.265Z,98081.65
2018-02-13T06:09:16.950Z,98077.67
2018-02-13T06:11:44.815Z,98084.35
2018-02-13T06:14:12.483Z,98079.52
2018-02-13T06:16:40.148Z,98081.70
2018-02-13T06:19:07.831Z,98087.09
2018-02-13T06:21:35.511Z,98091.38
2018-02-13T06:24:03.443Z,98084.86
2018-02-13T06:26:31.143Z,98086.91
2018-02-13T06:28:58.801Z,98085.12
2018-02-13T06:31:26.522Z,98080.81
2018-02-13T06:33:54.210Z,98090.16
2018-02-13T06:36:21.931Z,98088.48
2018-02-13T06:38:49.640Z,98088.53
2018-02-13T06:41:17.316Z,98085.02
2018-02-13T06:43:45.014Z,98084.44
2018-02-13T06:46:12.701Z,98084.20
2018-02-13T06:48:40.703Z,98088.13
2018-02-13T06:51:08.371Z,98087.70
2018-02-13T06:53:36.054Z,98087.67
2018-02-13T06:56:03.753Z,98086.95
2018-02-13T06:58:31.417Z,98085.83
2018-02-13T07:00:59.140Z,98086.55
2018-02-13T07:03:26.828Z,98081.21
2018-02-13T07:05:54.517Z,98087.09
2018-02-13T07:08:22.223Z,98091.06
2018-02-13T07:10:49.909Z,98090.17
2018-02-13T07:13:17.635Z,98084.03
2018-02-13T07:15:45.366Z,98088.38
2018-02-13T07:18:13.029Z,98089.53
2018-02-13T07:20:40.719Z,98081.22
2018-02-13T07:23:08.458Z,98085.55
2018-02-13T07:25:36.177Z,98088.00
2018-02-13T07:28:03.844Z,98080.48
2018-02-13T07:30:31.511Z,98080.66
2018-02-13T07:32:59.227Z,98086.66
2018-02-13T07:35:26.907Z,98077.63
2018-02-13T07:37:54.793Z,98080.63
2018-02-13T07:40:22.498Z,98078.73
2018-02-13T07:42:50.171Z,98081.20
2018-02-13T07:45:17.881Z,98078.77
2018-02-13T07:47:45.591Z,98086.43
2018-02-13T07:50:13.650Z,98083.62
2018-02-13T07:52:41.331Z,98081.77
2018-02-13T07:55:09.057Z,98081.47
2018-02-13T07:57:37.417Z,98082.02
2018-02-13T08:00:05.086Z,98081.73
2018-02-13T08:02:33.192Z,98081.48
2018-02-13T08:05:01.577Z,98075.85
2018-02-13T08:07:29.253Z,98081.05
2018-02-13T08:09:56.947Z,98075.88
2018-02-13T08:12:24.611Z,98069.05
2018-02-13T08:14:52.750Z,98075.17
2018-02-13T08:17:20.726Z,98072.94
2018-02-13T08:19:48.697Z,98066.56
2018-02-13T08:22:16.407Z,98070.44
2018-02-13T08:24:44.069Z,98068.11
2018-02-13T08:27:11.968Z,98058.66
2018-02-13T08:29:39.636Z,98062.75
2018-02-13T08:32:07.298Z,98059.13
2018-02-13T08:34:34.984Z,98060.99
2018-02-13T08:37:02.651Z,98059.50
2018-02-13T08:39:30.458Z,98057.41
2018-02-13T08:41:58.120Z,98053.90
2018-02-13T08:44:25.778Z,98052.96
2018-02-13T08:46:53.801Z,98052.20
2018-02-13T08:49:21.867Z,98044.20
2018-02-13T08:51:50.940Z,98049.20
2018-02-13T08:54:18.600Z,98043.48
2018-02-13T08:56:47.765Z,98039.41
2018-02-13T08:59:15.449Z,98033.95
2018-02-13T09:01:43.122Z,98036.69
2018-02-13T09:04:10.834Z,98029.88
2018-02-13T09:06:38.520Z,98034.39
2018-02-13T09:09:06.212Z,98029.88
2018-02-13T09:11:33.919Z,98030.41
2018-02-13T09:14:01.591Z,98028.09
2018-02-13T09:16:29.938Z,98026.89
2018-02-13T09:18:57.809Z,98025.20
2018-02-13T09:21:25.481Z,98017.28
2018-02-13T09:23:54.656Z,98012.61
2018-02-13T09:26:22.332Z,98012.13
2018-02-13T09:28:50.065Z,98006.50
2018-02-13T09:31:17.741Z,98006.27
2018-02-13T09:33:45.606Z,98006.64
2018-02-13T09:36:13.310Z,97998.98
2018-02-13T09:38:42.434Z,98004.46
2018-02-13T09:41:10.514Z,98001.19
2018-02-13T09:43:38.219Z,98000.34
2018-02-13T09:46:06.500Z,97995.52
2018-02-13T09:48:34.472Z,97992.94
2018-02-13T09:51:02.156Z,97999.59
2018-02-13T09:53:29.886Z,97996.51
2018-02-13T09:55:58.202Z,97998.19
2018-02-13T09:58:26.071Z,97998.69
2018-02-13T10:00:53.764Z,97998.66
2018-02-13T10:03:21.421Z,97999.28
2018-02-13T10:05:49.391Z,97996.77
2018-02-13T10:08:17.052Z,97986.73
2018-02-13T10:10:44.736Z,97988.02
2018-02-13T10:13:12.450Z,97991.23
2018-02-13T10:15:40.123Z,97986.98
2018-02-13T10:18:08.154Z,97984.81
2018-02-13T10:20:36.088Z,97979.88
2018-02-13T10:23:03.763Z,97974.05
2018-02-13T10:25:31.469Z,97971.94
2018-02-13T10:27:59.199Z,97964.25
2018-02-13T10:30:26.935Z,97964.00
2018-02-13T10:32:54.792Z,97962.72
2018-02-13T10:35:22.954Z,97960.94
2018-02-13T10:37:50.682Z,97961.55
2018-02-13T10:40:18.398Z,97953.80
2018-02-13T10:42:46.398Z,97951.81
2018-02-13T10:45:14.069Z,97956.08
2018-02-13T10:47:41.940Z,97950.59
2018-02-13T10:50:09.916Z,97943.84
2018-02-13T10:52:37.606Z,97933.86
2018-02-13T10:55:05.620Z,97933.98
2018-02-13T10:57:33.345Z,97928.34
2018-02-13T11:00:01.020Z,97922.47
2018-02-13T11:02:28.796Z,97913.00
2018-02-13T11:04:56.465Z,97907.58
2018-02-13T11:07:24.171Z,97917.75
2018-02-13T11:09:51.852Z,97903.38
2018-02-13T11:12:19.522Z,97902.24
2018-02-13T11:14:47.575Z,97904.11
2018-02-13T11:17:16.348Z,97897.23
2018-02-13T11:19:44.622Z,97892.53
2018-02-13T11:22:12.474Z,97893.66
2018-02-13T11:24:40.203Z,97892.16
2018-02-13T11:27:07.899Z,97892.95
2018-02-13T11:29:35.606Z,97884.20
2018-02-13T11:32:03.423Z,97883.82
2018-02-13T11:34:31.095Z,97877.28
2018-02-13T11:36:58.756Z,97875.09
2018-02-13T11:39:26.523Z,97869.81
2018-02-13T11:41:54.183Z,97871.91
2018-02-13T11:44:22.273Z,97867.01
2018-02-13T11:46:50.197Z,97864.27
2018-02-13T11:49:18.307Z,97861.51
2018-02-13T11:51:46.304Z,97860.16
2018-02-13T11:54:14.134Z,97856.27
2018-02-13T11:56:41.987Z,97850.13
2018-02-13T11:59:09.652Z,97844.39
2018-02-13T12:01:37.319Z,97845.28
2018-02-13T12:04:05.038Z,97830.94
2018-02-13T12:06:32.729Z,97829.79
2018-02-13T12:09:00.429Z,97817.02
2018-02-13T12:11:28.175Z,97815.66
2018-02-13T12:13:55.767Z,97817.12
2018-02-13T12:16:23.440Z,97812.51
2018-02-13T12:18:51.486Z,97815.84
2018-02-13T12:21:19.759Z,97811.70
2018-02-13T12:23:47.483Z,97808.73
2018-02-13T12:26:15.144Z,97807.16
2018-02-13T12:28:42.855Z,97803.98
2018-02-13T12:31:10.552Z,97800.11
2018-02-13T12:33:38.976Z,97790.77
2018-02-13T12:36:06.671Z,97797.86
2018-02-13T12:38:34.361Z,97793.21
2018-02-13T12:41:02.068Z,97793.38
2018-02-13T12:43:29.746Z,97786.83
2018-02-13T12:45:57.892Z,97789.94
2018-02-13T12:48:25.550Z,97777.63
2018-02-13T12:50:53.663Z,97773.25
2018-02-13T12:53:21.732Z,97763.94
2018-02-13T12:55:49.333Z,97758.94
2018-02-13T12:58:17.138Z,97758.84
2018-02-13T13:00:44.738Z,97745.87
2018-02-13T13:03:12.389Z,97738.62
2018-02-13T13:05:40.005Z,97736.17
2018-02-13T13:08:07.741Z,97742.11
2018-02-13T13:10:35.369Z,97741.20
2018-02-13T13:13:02.953Z,97738.37
2018-02-13T13:15:30.543Z,97739.61
2018-02-13T13:17:58.166Z,97740.09
2018-02-13T13:20:26.221Z,97739.80
2018-02-13T13:22:54.392Z,97728.43
2018-02-13T13:25:21.983Z,97728.18
2018-02-13T13:27:49.587Z,97720.34
2018-02-13T13:30:20.641Z,97713.39
2018-02-13T13:32:48.234Z,97709.41
2018-02-13T13:35:15.849Z,97697.94
2018-02-13T13:37:45.463Z,97701.47
2018-02-13T13:40:13.127Z,97696.56
2018-02-13T13:42:40.740Z,97688.16
2018-02-13T13:45:08.340Z,97682.92
2018-02-13T13:47:36.371Z,97687.38
2018-02-13T13:50:03.971Z,97677.50
2018-02-13T13:52:32.721Z,97681.94
2018-02-13T13:55:00.769Z,97680.72
2018-02-13T13:57:28.364Z,97675.65
2018-02-13T13:59:56.019Z,97666.28
2018-02-13T14:02:23.620Z,97664.83
2018-02-13T14:04:54.363Z,97670.78
2018-02-13T14:07:22.443Z,97667.63
2018-02-13T14:09:50.035Z,97670.36
2018-02-13T14:12:17.649Z,97669.92
2018-02-13T14:14:45.240Z,97667.10
2018-02-13T14:17:18.891Z,97669.80
2018-02-13T14:19:46.626Z,97668.84
2018-02-13T14:22:14.716Z,97679.34
2018-02-13T14:24:42.837Z,97672.83
2018-02-13T14:27:12.614Z,97672.07
2018-02-13T14:29:40.422Z,97674.64
2018-02-13T14:32:08.075Z,97664.30
2018-02-13T14:34:36.444Z,97662.44
2018-02-13T14:37:05.320Z,97654.20
2018-02-13T14:39:32.927Z,97659.48
2018-02-13T14:42:02.612Z,97653.59
2018-02-13T14:44:30.434Z,97650.88
2018-02-13T14:46:58.265Z,97659.18
2018-02-13T14:49:25.954Z,97659.13
2018-02-13T14:51:53.734Z,97659.30
2018-02-13T14:54:30.355Z,97666.48
2018-02-13T14:56:58.267Z,97657.36
2018-02-13T14:59:25.865Z,97657.00
2018-02-13T15:01:53.472Z,97656.97
2018-02-13T15:04:21.137Z,97651.86
2018-02-13T15:06:49.166Z,97645.52
2018-02-13T15:09:16.752Z,97639.28
2018-02-13T15:11:44.365Z,97641.05
2018-02-13T15:14:11.997Z,97640.92
2018-02-13T15:16:40.933Z,97640.72
2018-02-13T15:19:08.556Z,97647.05
2018-02-13T15:21:36.349Z,97649.80
2018-02-13T15:24:03.963Z,97647.13
2018-02-13T15:26:31.588Z,97656.94
2018-02-13T15:28:59.635Z,97658.00
2018-02-13T15:31:27.220Z,97653.47
2018-02-13T15:33:54.908Z,97653.37
2018-02-13T15:36:22.527Z,97642.39
2018-02-13T15:38:50.247Z,97645.34
2018-02-13T15:41:17.915Z,97646.68
2018-02-13T15:43:45.579Z,97639.08
2018-02-13T15:46:13.159Z,97648.70
2018-02-13T15:48:40.845Z,97645.62
2018-02-13T15:51:08.514Z,97648.42
2018-02-13T15:53:36.440Z,97652.42
2018-02-13T15:56:04.582Z,97647.88
2018-02-13T15:58:32.253Z,97648.28
2018-02-13T16:00:59.883Z,97646.97
2018-02-13T16:03:27.550Z,97645.22
2018-02-13T16:05:55.614Z,97638.78
2018-02-13T16:08:23.271Z,97636.35
2018-02-13T16:10:50.924Z,97635.58
2018-02-13T16:13:18.604Z,97635.16
2018-02-13T16:15:46.193Z,97642.84
2018-02-13T16:18:13.908Z,97644.47
2018-02-13T16:20:41.571Z,97641.50
2018-02-13T16:23:09.239Z,97644.36
2018-02-13T16:25:36.962Z,97631.95
2018-02-13T16:28:04.626Z,97634.16
2018-02-13T16:30:32.611Z,97630.86
2018-02-13T16:33:00.294Z,97633.23
2018-02-13T16:35:27.963Z,97633.13
2018-02-13T16:37:55.659Z,97627.09
2018-02-13T16:40:23.334Z,97634.48
2018-02-13T16:42:51.161Z,97632.53
2018-02-13T16:45:18.925Z,97633.23
2018-02-13T16:47:46.898Z,97635.42
2018-02-13T16:50:14.938Z,97628.27
2018-02-13T16:52:42.595Z,97630.80
2018-02-13T16:55:10.503Z,97630.52
2018-02-13T16:57:38.175Z,97629.29
2018-02-13T17:00:05.853Z,97633.29
2018-02-13T17:02:33.542Z,97630.72
2018-02-13T17:05:01.215Z,97624.82
2018-02-13T17:07:28.911Z,97621.13
2018-02-13T17:09:56.579Z,97624.45
2018-02-13T17:12:24.234Z,97628.69
2018-02-13T17:14:51.924Z,97622.42
2018-02-13T17:17:19.596Z,97628.64
2018-02-13T17:19:47.320Z,97633.03
2018-02-13T17:22:14.998Z,97630.23
2018-02-13T17:24:42.674Z,97629.53
2018-02-13T17:27:10.383Z,97636.72
2018-02-13T17:29:38.074Z,97634.84
2018-02-13T17:32:05.942Z,97631.28
2018-02-13T17:34:33.616Z,97637.05
2018-02-13T17:37:01.271Z,97633.00
2018-02-13T17:39:28.947Z,97631.40
2018-02-13T17:41:56.690Z,97625.61
2018-02-13T17:44:24.866Z,97632.92
2018-02-13T17:46:52.531Z,97629.22
2018-02-13T17:49:20.195Z,97628.76
2018-02-13T17:51:47.883Z,97629.20
2018-02-13T17:54:15.544Z,97627.69
2018-02-13T17:56:44.045Z,97633.33
2018-02-13T17:59:11.836Z,97624.75
2018-02-13T18:01:39.492Z,97632.05
2018-02-13T18:04:07.447Z,97635.25
2018-02-13T18:06:35.125Z,97629.65
2018-02-13T18:09:02.863Z,97638.45
2018-02-13T18:11:30.601Z,97631.34
2018-02-13T18:13:58.362Z,97635.66
2018-02-13T18:16:26.038Z,97636.41
2018-02-13T18:18:53.699Z,97632.35
2018-02-13T18:21:21.635Z,97635.53
2018-02-13T18:23:49.298Z,97636.99
2018-02-13T18:26:16.966Z,97638.08
2018-02-13T18:28:44.667Z,97636.59
2018-02-13T18:31:12.326Z,97645.25
2018-02-13T18:33:40.291Z,97640.84
2018-02-13T18:36:07.968Z,97635.86
2018-02-13T18:38:35.658Z,97639.20
2018-02-13T18:41:03.327Z,97638.45
2018-02-13T18:43:31.005Z,97642.59
2018-02-13T18:45:58.988Z,97641.04
2018-02-13T18:48:26.887Z,97638.11
2018-02-13T18:50:54.549Z,97637.45
2018-02-13T18:53:22.212Z,97645.12
2018-02-13T18:55:49.924Z,97646.63
2018-02-13T18:58:17.603Z,97646.97
2018-02-13T19:00:45.312Z,97648.78
2018-02-13T19:03:13.020Z,97645.26
2018-02-13T19:05:40.888Z,97653.14
2018-02-13T19:08:08.867Z,97649.81
2018-02-13T19:10:36.559Z,97653.94
2018-02-13T19:13:04.251Z,97654.07
2018-02-13T19:15:31.895Z,97659.13
2018-02-13T19:17:59.953Z,97653.95
2018-02-13T19:20:27.613Z,97651.55
2018-02-13T19:22:55.306Z,97651.55
2018-02-13T19:42:35.597Z,97648.86
2018-02-13T19:45:03.243Z,97647.85
2018-02-13T19:47:30.924Z,97646.52
2018-02-13T19:49:58.590Z,97650.03
2018-02-13T19:52:26.275Z,97648.19
2018-02-13T19:54:53.931Z,97644.48
2018-02-13T19:57:21.981Z,97645.48
2018-02-13T19:59:49.644Z,97649.39
2018-02-13T20:02:17.307Z,97646.50
2018-02-13T20:04:44.989Z,97645.14
2018-02-13T20:07:12.647Z,97652.62
2018-02-13T20:09:40.392Z,97652.42
2018-02-13T20:12:08.056Z,97648.81
2018-02-13T20:14:35.735Z,97652.18
2018-02-13T20:17:03.399Z,97654.03
2018-02-13T20:19:31.088Z,97656.88
2018-02-13T20:21:58.756Z,97650.71
2018-02-13T20:24:26.561Z,97655.31
2018-02-13T20:26:54.227Z,97653.34
2018-02-13T20:29:21.909Z,97660.25
2018-02-13T20:31:49.580Z,97664.63
2018-02-13T20:34:17.633Z,97663.41
2018-02-13T20:36:45.398Z,97662.98
2018-02-13T20:39:13.057Z,97668.04
2018-02-13T20:41:40.737Z,97665.51
2018-02-13T20:44:08.423Z,97673.28
2018-02-13T20:46:36.115Z,97663.33
2018-02-13T20:49:03.775Z,97666.27
2018-02-13T20:51:31.458Z,97667.75
2018-02-13T20:53:59.222Z,97668.27
2018-02-13T20:56:26.876Z,97669.41
2018-02-13T20:58:54.561Z,97672.19
2018-02-13T21:01:22.216Z,97673.50
2018-02-13T21:03:50.094Z,97664.90
2018-02-13T21:06:17.762Z,97670.81
2018-02-13T21:08:45.431Z,97663.10
2018-02-13T21:11:13.129Z,97667.38
2018-02-13T21:13:40.813Z,97659.52
2018-02-13T21:16:08.536Z,97667.91
2018-02-13T21:18:36.193Z,97656.36
2018-02-13T21:21:03.883Z,97659.81
2018-02-13T21:23:31.540Z,97660.20
2018-02-13T21:25:59.223Z,97659.67
2018-02-13T21:28:26.877Z,97660.53
2018-02-13T21:30:54.557Z,97661.15
2018-02-13T21:33:22.212Z,97653.42
2018-02-13T21:35:49.865Z,97654.29
2018-02-13T21:38:17.559Z,97658.55
2018-02-13T21:40:45.235Z,97653.16
2018-02-13T21:43:13.229Z,97650.06
2018-02-13T21:45:40.891Z,97650.98
2018-02-13T21:48:08.540Z,97645.02
2018-02-13T21:50:36.223Z,97643.26
2018-02-13T21:53:03.873Z,97645.97
2018-02-13T21:55:31.565Z,97644.98
2018-02-13T21:57:59.282Z,97644.30
2018-02-13T22:00:26.968Z,97639.74
2018-02-13T22:02:54.632Z,97651.44
2018-02-13T22:05:22.322Z,97645.17
2018-02-13T22:07:50.004Z,97649.18
2018-02-13T22:10:17.704Z,97647.48
2018-02-13T22:12:45.367Z,97644.55
2018-02-13T22:15:13.059Z,97645.87
2018-02-13T22:17:40.730Z,97643.07
2018-02-13T22:20:08.413Z,97643.41
2018-02-13T22:22:36.082Z,97647.58
2018-02-13T22:25:03.964Z,97646.95
2018-02-13T22:27:31.638Z,97639.39
2018-02-13T22:29:59.313Z,97641.52
2018-02-13T22:32:27.015Z,97640.94
2018-02-13T22:34:54.693Z,97639.67
2018-02-13T22:37:22.381Z,97641.98
2018-02-13T22:39:50.051Z,97643.33
2018-02-13T22:42:17.744Z,97646.23
2018-02-13T22:44:45.399Z,97638.98
2018-02-13T22:47:13.098Z,97642.41
2018-02-13T22:49:40.762Z,97640.72
2018-02-13T22:52:08.453Z,97644.02
2018-02-13T22:54:36.140Z,97644.67
2018-02-13T22:57:03.826Z,97650.09
2018-02-13T22:59:31.495Z,97652.80
2018-02-13T23:01:59.479Z,97649.56
2018-02-13T23:04:27.149Z,97651.22
2018-02-13T23:06:54.819Z,97651.47
2018-02-13T23:09:22.524Z,97645.99
2018-02-13T23:11:50.189Z,97646.50
2018-02-13T23:14:17.880Z,97646.09
2018-02-13T23:16:45.536Z,97653.41
2018-02-13T23:19:14.214Z,97656.08
2018-02-13T23:21:41.882Z,97648.48
2018-02-13T23:24:09.570Z,97656.44
2018-02-13T23:26:37.236Z,97650.00
2018-02-13T23:29:04.922Z,97655.45
2018-02-13T23:31:32.584Z,97660.61
2018-02-13T23:34:00.313Z,97652.90
2018-02-13T23:36:27.970Z,97656.00
2018-02-13T23:38:55.631Z,97657.58
2018-02-13T23:41:23.346Z,97652.55
2018-02-13T23:43:51.059Z,97652.55
2018-02-13T23:46:18.749Z,97658.44
2018-02-13T23:48:46.419Z,97647.98
2018-02-13T23:51:14.112Z,97657.23
2018-02-13T23:53:41.785Z,97651.69
2018-02-13T23:56:09.468Z,97655.80
2018-02-13T23:58:37.169Z,97657.27
